createdAt,value
2023-02-25T00:01:32.323Z,11.05
2023-02-25T00:03:59.705Z,9.20
2023-02-25T00:06:26.526Z,9.13
2023-02-25T00:08:54.390Z,9.05
2023-02-25T00:11:23.470Z,8.52
2023-02-25T00:13:50.530Z,9.13
2023-02-25T00:16:19.070Z,8.98
2023-02-25T00:18:46.925Z,7.57
2023-02-25T00:21:16.072Z,8.73
2023-02-25T00:23:45.016Z,8.55
2023-02-25T00:26:12.156Z,9.23
2023-02-25T00:28:40.433Z,7.78
2023-02-25T00:31:12.254Z,7.57
2023-02-25T00:33:42.176Z,9.07
2023-02-25T00:36:21.533Z,8.00
2023-02-25T00:38:52.901Z,8.00
2023-02-25T00:41:21.944Z,8.27
2023-02-25T00:43:51.685Z,7.80
2023-02-25T00:46:18.899Z,7.68
2023-02-25T00:48:45.824Z,7.90
2023-02-25T00:51:15.278Z,9.20
2023-02-25T00:53:43.845Z,8.73
2023-02-25T00:56:15.644Z,10.32
2023-02-25T00:58:48.364Z,10.68
2023-02-25T01:01:19.489Z,11.20
2023-02-25T01:03:46.910Z,10.40
2023-02-25T01:06:15.086Z,11.45
2023-02-25T01:08:41.958Z,10.75
2023-02-25T01:11:20.838Z,11.55
2023-02-25T01:13:50.852Z,11.02
2023-02-25T01:16:23.127Z,10.98
2023-02-25T01:18:55.012Z,12.55
2023-02-25T01:21:34.951Z,12.38
2023-02-25T01:24:08.072Z,13.10
2023-02-25T01:26:37.440Z,12.43
2023-02-25T01:29:16.476Z,12.77
2023-02-25T01:31:44.693Z,11.98
2023-02-25T01:34:14.821Z,13.82
2023-02-25T01:36:42.190Z,14.00
2023-02-25T01:39:10.038Z,12.95
2023-02-25T01:41:37.649Z,14.40
2023-02-25T01:44:16.156Z,16.15
2023-02-25T01:46:47.444Z,16.77
2023-02-25T01:49:38.545Z,14.95
2023-02-25T01:52:13.193Z,16.17
2023-02-25T01:54:40.697Z,12.95
2023-02-25T01:57:10.347Z,13.35
2023-02-25T01:59:39.044Z,12.90
2023-02-25T02:02:08.661Z,11.43
2023-02-25T02:04:37.773Z,10.32
2023-02-25T02:07:04.350Z,10.50
2023-02-25T02:09:31.350Z,11.55
2023-02-25T02:12:04.546Z,10.32
2023-02-25T02:14:41.267Z,12.68
2023-02-25T02:17:35.830Z,12.18
2023-02-25T02:20:13.693Z,11.70
2023-02-25T02:22:59.434Z,11.80
2023-02-25T02:25:52.710Z,13.77
2023-02-25T02:28:57.798Z,10.68
2023-02-25T02:31:45.035Z,11.07
2023-02-25T02:34:27.418Z,12.07
2023-02-25T02:36:59.739Z,11.45
2023-02-25T02:39:29.402Z,10.77
2023-02-25T02:41:59.858Z,12.32
2023-02-25T02:44:36.268Z,11.80
2023-02-25T02:47:17.863Z,12.38
2023-02-25T02:50:11.908Z,10.57
2023-02-25T02:52:48.669Z,10.02
2023-02-25T02:55:24.259Z,11.55
2023-02-25T02:57:58.276Z,12.02
2023-02-25T03:00:30.647Z,9.93
2023-02-25T03:03:02.581Z,11.10
2023-02-25T03:05:31.691Z,12.40
2023-02-25T03:08:11.854Z,11.40
2023-02-25T03:10:38.597Z,12.20
2023-02-25T03:13:05.938Z,12.93
2023-02-25T03:15:33.508Z,11.88
2023-02-25T03:18:42.525Z,11.40
2023-02-25T03:21:18.478Z,13.32
2023-02-25T03:23:47.613Z,14.60
2023-02-25T03:26:23.982Z,14.82
2023-02-25T03:28:56.404Z,17.90
2023-02-25T03:31:35.092Z,19.85
2023-02-25T03:34:08.549Z,22.17
2023-02-25T03:36:40.966Z,17.83
2023-02-25T03:39:21.811Z,17.00
2023-02-25T03:41:55.431Z,15.35
2023-02-25T03:44:31.571Z,16.25
2023-02-25T03:46:59.797Z,14.60
2023-02-25T03:50:00.498Z,15.18
2023-02-25T03:52:28.473Z,17.00
2023-02-25T03:54:59.462Z,15.43
2023-02-25T03:57:36.038Z,12.80
2023-02-25T04:00:15.572Z,15.80
2023-02-25T04:02:43.077Z,13.18
2023-02-25T04:05:12.489Z,14.63
2023-02-25T04:07:39.388Z,14.80
2023-02-25T04:10:11.214Z,14.85
2023-02-25T04:12:38.936Z,15.00
2023-02-25T04:15:06.565Z,15.82
2023-02-25T04:17:34.199Z,17.98
2023-02-25T04:20:00.731Z,16.48
2023-02-25T04:22:27.577Z,16.58
2023-02-25T04:24:54.114Z,17.88
2023-02-25T04:27:21.018Z,17.52
2023-02-25T04:29:47.584Z,18.75
2023-02-25T04:32:14.182Z,20.08
2023-02-25T04:34:40.983Z,19.30
2023-02-25T04:37:09.199Z,21.05
2023-02-25T04:39:36.171Z,19.10
2023-02-25T04:42:02.854Z,14.57
2023-02-25T04:44:29.399Z,13.13
2023-02-25T04:46:56.116Z,12.00
2023-02-25T04:49:23.352Z,10.55
2023-02-25T04:51:51.496Z,10.20
2023-02-25T04:54:19.811Z,10.68
2023-02-25T04:56:47.293Z,7.65
2023-02-25T04:59:14.397Z,7.00
2023-02-25T05:01:41.602Z,7.10
2023-02-25T05:04:08.178Z,6.30
2023-02-25T05:06:34.747Z,7.07
2023-02-25T05:09:01.307Z,5.93
2023-02-25T05:11:28.980Z,6.35
2023-02-25T05:13:57.032Z,6.22
2023-02-25T05:16:24.999Z,6.97
2023-02-25T05:18:52.394Z,9.27
2023-02-25T05:21:21.417Z,8.85
2023-02-25T05:23:50.297Z,6.80
2023-02-25T05:26:21.931Z,7.50
2023-02-25T05:28:57.066Z,8.35
2023-02-25T05:31:25.120Z,9.60
2023-02-25T05:33:52.581Z,7.43
2023-02-25T05:36:19.826Z,7.10
2023-02-25T05:38:46.991Z,9.63
2023-02-25T05:41:14.729Z,9.32
2023-02-25T05:43:42.302Z,10.23
2023-02-25T05:46:11.872Z,9.27
2023-02-25T05:48:40.158Z,11.27
2023-02-25T05:51:10.479Z,10.90
2023-02-25T05:53:37.344Z,11.70
2023-02-25T05:56:09.720Z,10.98
2023-02-25T05:58:36.486Z,11.23
2023-02-25T06:01:24.689Z,11.25
2023-02-25T06:03:58.508Z,12.80
2023-02-25T06:06:28.468Z,11.82
2023-02-25T06:08:55.371Z,11.27
2023-02-25T06:11:27.666Z,11.43
2023-02-25T06:16:22.555Z,11.82
2023-02-25T06:18:51.385Z,12.55
2023-02-25T06:21:18.610Z,13.85
2023-02-25T06:23:50.143Z,13.40
2023-02-25T06:26:17.057Z,14.25
2023-02-25T06:28:43.818Z,13.43
2023-02-25T06:31:14.710Z,14.57
2023-02-25T06:33:41.806Z,15.30
2023-02-25T06:36:09.366Z,17.40
2023-02-25T06:38:36.802Z,17.13
2023-02-25T06:41:09.275Z,17.70
2023-02-25T06:43:36.585Z,17.50
2023-02-25T06:46:07.866Z,20.23
2023-02-25T06:48:34.808Z,19.33
2023-02-25T06:51:02.821Z,19.15
2023-02-25T06:53:29.558Z,21.92
2023-02-25T06:55:59.037Z,22.95
2023-02-25T06:58:25.676Z,24.90
2023-02-25T07:00:52.277Z,26.52
2023-02-25T07:03:19.043Z,27.25
2023-02-25T07:05:45.579Z,26.20
2023-02-25T07:08:12.235Z,26.40
2023-02-25T07:10:40.561Z,28.27
2023-02-25T07:13:08.871Z,25.70
2023-02-25T07:15:35.928Z,24.83
2023-02-25T07:18:03.816Z,25.83
2023-02-25T07:20:30.926Z,30.33
2023-02-25T07:22:57.902Z,28.40
2023-02-25T07:25:24.596Z,29.40
2023-02-25T07:27:51.443Z,29.13
2023-02-25T07:30:18.231Z,26.45
2023-02-25T07:32:45.587Z,21.50
2023-02-25T07:35:12.810Z,20.30
2023-02-25T07:37:39.697Z,17.67
2023-02-25T07:40:13.096Z,16.33
2023-02-25T07:42:43.359Z,14.60
2023-02-25T07:45:12.155Z,14.05
2023-02-25T07:47:39.223Z,11.15
2023-02-25T07:50:07.224Z,10.90
2023-02-25T07:52:34.132Z,11.73
2023-02-25T07:55:05.102Z,9.05
2023-02-25T07:57:32.071Z,10.55
2023-02-25T07:59:58.850Z,7.88
2023-02-25T08:02:25.811Z,10.10
2023-02-25T08:04:52.621Z,8.73
2023-02-25T08:07:20.381Z,9.18
2023-02-25T08:09:46.913Z,8.73
2023-02-25T08:12:13.608Z,7.35
2023-02-25T08:14:40.153Z,7.80
2023-02-25T08:17:06.927Z,6.68
2023-02-25T08:19:34.118Z,7.05
2023-02-25T08:22:00.823Z,7.22
2023-02-25T08:24:27.834Z,6.75
2023-02-25T08:26:54.808Z,5.70
2023-02-25T08:29:21.484Z,4.60
2023-02-25T08:31:53.168Z,5.22
2023-02-25T08:34:22.278Z,4.97
2023-02-25T08:36:49.990Z,4.88
2023-02-25T08:39:17.177Z,4.57
2023-02-25T08:41:44.802Z,4.65
2023-02-25T08:44:11.855Z,4.60
2023-02-25T08:46:40.436Z,4.13
2023-02-25T08:49:07.171Z,3.55
2023-02-25T08:51:34.206Z,3.28
2023-02-25T08:54:09.486Z,3.90
2023-02-25T08:56:37.009Z,4.28
2023-02-25T08:59:04.811Z,4.75
2023-02-25T09:01:44.858Z,4.78
2023-02-25T09:04:23.452Z,5.38
2023-02-25T09:06:53.852Z,5.10
2023-02-25T09:09:21.988Z,5.07
2023-02-25T09:11:49.363Z,4.22
2023-02-25T09:14:16.919Z,4.32
2023-02-25T09:16:44.200Z,4.93
2023-02-25T09:19:15.620Z,3.97
2023-02-25T09:21:42.475Z,4.80
2023-02-25T09:24:09.961Z,17.08
2023-02-25T09:26:36.951Z,4.15
2023-02-25T09:29:10.130Z,3.22
2023-02-25T09:31:37.541Z,5.47
2023-02-25T09:34:08.233Z,3.08
2023-02-25T09:36:34.914Z,2.33
2023-02-25T09:39:02.481Z,2.85
2023-02-25T09:41:35.406Z,13.40
2023-02-25T09:44:13.494Z,3.42
2023-02-25T09:46:48.477Z,10.65
2023-02-25T09:49:38.543Z,3.78
2023-02-25T09:52:16.795Z,4.63
2023-02-25T09:54:46.687Z,4.68
2023-02-25T09:57:22.488Z,3.60
2023-02-25T09:59:52.290Z,3.00
2023-02-25T10:02:29.372Z,4.22
2023-02-25T10:04:55.974Z,4.25
2023-02-25T10:07:28.486Z,2.88
2023-02-25T10:10:21.758Z,3.30
2023-02-25T10:13:00.509Z,2.72
2023-02-25T10:15:30.278Z,3.08
2023-02-25T10:18:15.672Z,2.63
2023-02-25T10:20:57.314Z,2.55
2023-02-25T10:23:40.781Z,3.23
2023-02-25T10:26:23.775Z,3.45
2023-02-25T10:28:58.406Z,2.70
2023-02-25T10:31:27.711Z,2.72
2023-02-25T10:33:57.195Z,2.17
2023-02-25T10:36:46.617Z,2.35
2023-02-25T10:39:13.259Z,2.88
2023-02-25T10:41:40.097Z,2.47
2023-02-25T10:44:06.708Z,2.83
2023-02-25T10:46:38.795Z,16.33
2023-02-25T10:49:25.396Z,2.40
2023-02-25T10:52:05.375Z,3.10
2023-02-25T10:54:33.775Z,5.53
2023-02-25T10:57:08.279Z,2.80
2023-02-25T10:59:38.669Z,5.63
2023-02-25T11:02:22.091Z,2.42
2023-02-25T11:04:50.438Z,2.42
2023-02-25T11:07:43.299Z,1.90
2023-02-25T11:10:13.314Z,4.22
2023-02-25T11:12:53.031Z,2.65
2023-02-25T11:15:45.310Z,2.20
2023-02-25T11:18:27.484Z,2.33
2023-02-25T11:21:02.954Z,2.55
2023-02-25T11:23:35.549Z,2.50
2023-02-25T11:26:03.301Z,2.10
2023-02-25T11:28:43.765Z,2.17
2023-02-25T11:31:19.124Z,2.72
2023-02-25T11:33:53.489Z,3.05
2023-02-25T11:36:26.515Z,3.23
2023-02-25T11:39:04.263Z,2.70
2023-02-25T11:41:32.414Z,3.05
2023-02-25T11:44:16.995Z,4.03
2023-02-25T11:46:46.118Z,3.72
2023-02-25T11:49:21.759Z,4.65
2023-02-25T11:52:02.292Z,3.40
2023-02-25T11:54:45.315Z,3.40
2023-02-25T11:57:35.507Z,3.90
2023-02-25T12:00:20.841Z,2.25
2023-02-25T12:03:01.295Z,3.70
2023-02-25T12:05:35.152Z,3.67
2023-02-25T12:08:25.085Z,3.58
2023-02-25T12:11:25.774Z,3.67
2023-02-25T12:14:29.285Z,3.67
2023-02-25T12:17:13.947Z,4.43
2023-02-25T12:20:01.741Z,3.83
2023-02-25T12:22:52.883Z,3.88
2023-02-25T12:25:30.145Z,4.15
2023-02-25T12:28:24.911Z,3.65
2023-02-25T12:31:03.157Z,27.70
2023-02-25T12:33:48.335Z,5.00
2023-02-25T12:36:33.529Z,48.97
2023-02-25T12:39:25.290Z,5.43
2023-02-25T12:41:58.232Z,9.17
2023-02-25T12:44:55.130Z,6.95
2023-02-25T12:47:33.853Z,13.55
2023-02-25T12:50:16.377Z,4.50
2023-02-25T12:52:57.737Z,11.20
2023-02-25T12:55:44.821Z,7.45
2023-02-25T12:58:33.711Z,4.68
2023-02-25T13:01:18.950Z,5.97
2023-02-25T13:03:57.600Z,4.47
2023-02-25T13:07:02.011Z,4.72
2023-02-25T13:10:03.286Z,4.25
2023-02-25T13:12:57.685Z,4.68
2023-02-25T13:15:49.403Z,3.75
2023-02-25T13:18:18.742Z,5.03
2023-02-25T13:21:12.428Z,2.58
2023-02-25T13:24:03.476Z,3.38
2023-02-25T13:26:48.226Z,2.97
2023-02-25T13:29:39.695Z,3.47
2023-02-25T13:32:09.108Z,2.40
2023-02-25T13:37:15.815Z,3.85
2023-02-25T13:40:26.875Z,4.82
2023-02-25T13:43:26.036Z,4.38
2023-02-25T13:46:28.388Z,4.53
2023-02-25T13:49:26.867Z,2.97
2023-02-25T13:52:28.708Z,4.65
2023-02-25T13:55:11.516Z,3.37
2023-02-25T13:58:06.602Z,3.17
2023-02-25T14:00:56.386Z,2.30
2023-02-25T14:03:32.161Z,2.55
2023-02-25T14:06:11.932Z,2.25
2023-02-25T14:09:07.469Z,2.72
2023-02-25T14:11:43.983Z,6.53
2023-02-25T14:14:54.617Z,5.95
2023-02-25T14:17:30.160Z,5.18
2023-02-25T14:20:40.194Z,7.82
2023-02-25T14:23:45.516Z,7.47
2023-02-25T14:26:22.618Z,4.93
2023-02-25T14:29:07.548Z,5.65
2023-02-25T14:31:46.942Z,4.03
2023-02-25T14:34:35.054Z,2.75
2023-02-25T14:37:24.834Z,6.45
2023-02-25T14:39:57.482Z,4.63
2023-02-25T14:42:24.060Z,2.97
2023-02-25T14:45:10.724Z,5.65
2023-02-25T14:47:55.826Z,4.38
2023-02-25T14:50:32.243Z,3.13
2023-02-25T14:53:36.046Z,6.88
2023-02-25T14:56:15.174Z,6.72
2023-02-25T14:58:57.107Z,5.05
2023-02-25T15:01:55.730Z,3.70
2023-02-25T15:04:41.822Z,7.97
2023-02-25T15:07:29.957Z,3.75
2023-02-25T15:10:21.709Z,3.88
2023-02-25T15:13:10.380Z,17.30
2023-02-25T15:15:40.853Z,3.83
2023-02-25T15:18:19.479Z,3.47
2023-02-25T15:20:46.774Z,6.05
2023-02-25T15:23:14.492Z,4.35
2023-02-25T15:25:50.546Z,10.52
2023-02-25T15:28:29.285Z,18.60
2023-02-25T15:30:58.919Z,4.22
2023-02-25T15:33:40.757Z,12.00
2023-02-25T15:36:17.276Z,22.65
2023-02-25T15:38:53.868Z,8.68
2023-02-25T15:41:26.532Z,5.07
2023-02-25T15:44:00.304Z,15.35
2023-02-25T15:46:36.020Z,6.75
2023-02-25T15:49:15.872Z,13.30
2023-02-25T15:51:51.434Z,8.98
2023-02-25T15:54:30.322Z,12.90
2023-02-25T15:57:24.562Z,9.18
2023-02-25T15:59:55.400Z,15.88
2023-02-25T16:02:33.241Z,11.63
2023-02-25T16:05:01.954Z,8.25
2023-02-25T16:07:36.087Z,5.25
2023-02-25T16:10:09.129Z,18.20
2023-02-25T16:12:38.636Z,12.45
2023-02-25T16:15:06.135Z,12.40
2023-02-25T16:17:35.402Z,7.90
2023-02-25T16:20:25.641Z,8.23
2023-02-25T16:22:57.391Z,12.10
2023-02-25T16:25:49.002Z,7.55
2023-02-25T16:28:24.635Z,11.30
2023-02-25T16:31:12.442Z,10.45
2023-02-25T16:34:07.810Z,7.57
2023-02-25T16:36:47.326Z,11.70
2023-02-25T16:39:13.841Z,7.22
2023-02-25T16:41:41.901Z,7.40
2023-02-25T16:44:08.972Z,7.15
2023-02-25T16:46:39.017Z,6.57
2023-02-25T16:49:11.165Z,6.00
2023-02-25T16:51:41.265Z,6.75
2023-02-25T16:54:17.799Z,5.57
2023-02-25T16:56:47.036Z,5.63
2023-02-25T16:59:13.506Z,6.22
2023-02-25T17:01:49.027Z,5.70
2023-02-25T17:04:19.784Z,6.47
2023-02-25T17:07:17.923Z,5.68
2023-02-25T17:09:48.863Z,6.22
2023-02-25T17:12:43.690Z,6.00
2023-02-25T17:15:40.687Z,11.38
2023-02-25T17:18:13.237Z,8.30
2023-02-25T17:20:39.959Z,6.13
2023-02-25T17:23:11.818Z,8.88
2023-02-25T17:25:42.026Z,6.45
2023-02-25T17:28:26.034Z,12.82
2023-02-25T17:30:54.889Z,8.82
2023-02-25T17:33:27.058Z,5.15
2023-02-25T17:35:58.839Z,9.75
2023-02-25T17:38:28.854Z,9.82
2023-02-25T17:40:55.664Z,7.57
2023-02-25T17:43:25.123Z,6.30
2023-02-25T17:46:01.169Z,5.65
2023-02-25T17:48:31.410Z,7.72
2023-02-25T17:51:07.810Z,7.07
2023-02-25T17:53:38.167Z,9.88
2023-02-25T17:56:28.852Z,7.63
2023-02-25T17:59:08.130Z,6.22
2023-02-25T18:01:56.548Z,6.90
2023-02-25T18:04:39.118Z,6.53
2023-02-25T18:07:22.276Z,7.55
2023-02-25T18:09:49.852Z,5.75
2023-02-25T18:12:27.656Z,6.43
2023-02-25T18:14:58.644Z,6.78
2023-02-25T18:17:52.931Z,6.22
2023-02-25T18:20:36.402Z,8.00
2023-02-25T18:23:16.028Z,7.40
2023-02-25T18:25:44.891Z,5.55
2023-02-25T18:28:24.270Z,6.10
2023-02-25T18:30:51.160Z,6.53
2023-02-25T18:33:18.528Z,7.43
2023-02-25T18:35:47.110Z,6.70
2023-02-25T18:38:20.637Z,6.18
2023-02-25T18:40:48.774Z,6.13
2023-02-25T18:43:20.358Z,5.32
2023-02-25T18:45:47.884Z,4.07
2023-02-25T18:48:14.717Z,4.97
2023-02-25T18:50:44.450Z,4.47
2023-02-25T18:53:19.169Z,7.72
2023-02-25T18:55:45.909Z,5.47
2023-02-25T18:58:14.569Z,4.38
2023-02-25T19:00:43.441Z,5.07
2023-02-25T19:03:14.567Z,4.65
2023-02-25T19:05:41.995Z,4.43
2023-02-25T19:08:13.104Z,5.28
2023-02-25T19:10:40.016Z,8.05
2023-02-25T19:13:16.470Z,7.00
2023-02-25T19:15:44.231Z,8.18
2023-02-25T19:18:15.198Z,5.60
2023-02-25T19:20:43.945Z,5.97
2023-02-25T19:23:15.914Z,5.95
2023-02-25T19:25:44.763Z,5.82
2023-02-25T19:28:11.610Z,5.75
2023-02-25T19:30:44.666Z,5.93
2023-02-25T19:33:12.576Z,7.25
2023-02-25T19:35:42.301Z,5.65
2023-02-25T19:38:13.634Z,6.18
2023-02-25T19:40:40.585Z,5.20
2023-02-25T19:43:11.271Z,6.22
2023-02-25T19:45:42.118Z,7.75
2023-02-25T19:48:12.426Z,6.97
2023-02-25T19:50:44.185Z,10.18
2023-02-25T19:56:09.430Z,8.77
2023-02-25T19:58:41.560Z,8.55
2023-02-25T20:01:11.363Z,5.47
2023-02-25T20:03:38.120Z,8.00
2023-02-25T20:06:09.550Z,7.40
2023-02-25T20:08:39.918Z,7.45
2023-02-25T20:11:10.683Z,9.98
2023-02-25T20:13:38.578Z,7.30
2023-02-25T20:16:08.545Z,8.77
2023-02-25T20:18:38.240Z,9.80
2023-02-25T20:21:05.837Z,10.40
2023-02-25T20:23:32.599Z,9.45
2023-02-25T20:26:10.922Z,11.07
2023-02-25T20:28:37.754Z,8.73
2023-02-25T20:31:16.219Z,7.88
2023-02-25T20:33:43.663Z,9.60
2023-02-25T20:36:22.182Z,10.20
2023-02-25T20:38:57.606Z,10.05
2023-02-25T20:41:25.596Z,11.90
2023-02-25T20:43:54.885Z,8.52
2023-02-25T20:46:28.448Z,8.50
2023-02-25T20:48:56.343Z,8.00
2023-02-25T20:51:26.129Z,8.40
2023-02-25T20:53:53.477Z,8.40
2023-02-25T20:56:23.577Z,9.25
2023-02-25T21:01:07.485Z,9.75
2023-02-25T21:03:34.459Z,9.75
2023-02-25T21:06:01.057Z,9.02
2023-02-25T21:08:27.765Z,10.23
2023-02-25T21:10:54.539Z,10.27
2023-02-25T21:13:24.344Z,10.57
2023-02-25T21:16:05.419Z,13.45
2023-02-25T21:18:36.227Z,14.27
2023-02-25T21:21:07.907Z,11.38
2023-02-25T21:23:36.306Z,17.17
2023-02-25T21:26:04.970Z,12.07
2023-02-25T21:28:32.346Z,10.43
2023-02-25T21:31:05.334Z,17.50
2023-02-25T21:33:33.314Z,13.63
2023-02-25T21:36:00.614Z,13.82
2023-02-25T21:38:28.162Z,12.82
2023-02-25T21:40:55.977Z,13.70
2023-02-25T21:43:23.076Z,12.68
2023-02-25T21:45:55.309Z,12.70
2023-02-25T21:50:49.633Z,12.98
2023-02-25T21:53:16.655Z,12.90
2023-02-25T21:55:43.782Z,13.88
2023-02-25T21:58:11.692Z,13.07
2023-02-25T22:00:38.815Z,14.57
2023-02-25T22:03:06.162Z,15.75
2023-02-25T22:05:33.055Z,13.90
2023-02-25T22:07:59.686Z,14.10
2023-02-25T22:10:26.474Z,13.07
2023-02-25T22:12:54.056Z,14.80
2023-02-25T22:15:23.991Z,11.48
2023-02-25T22:17:50.627Z,12.18
2023-02-25T22:20:17.471Z,11.88
2023-02-25T22:22:44.178Z,14.43
2023-02-25T22:25:10.882Z,12.60
2023-02-25T22:27:37.400Z,11.68
2023-02-25T22:30:04.519Z,11.85
2023-02-25T22:32:31.321Z,14.18
2023-02-25T22:34:57.955Z,13.07
2023-02-25T22:37:25.105Z,11.40
2023-02-25T22:39:51.636Z,12.75
2023-02-25T22:42:18.207Z,11.38
2023-02-25T22:44:46.921Z,12.35
2023-02-25T22:47:13.468Z,9.40
2023-02-25T22:49:40.163Z,10.13
2023-02-25T22:52:06.712Z,11.32
2023-02-25T22:54:33.270Z,11.65
2023-02-25T22:56:59.839Z,11.75
2023-02-25T22:59:26.508Z,11.20
2023-02-25T23:01:53.583Z,11.27
2023-02-25T23:04:20.100Z,12.00
2023-02-25T23:06:48.100Z,12.38
2023-02-25T23:09:14.840Z,11.75
2023-02-25T23:11:43.277Z,11.45
2023-02-25T23:14:10.180Z,11.52
2023-02-25T23:16:40.399Z,11.45
2023-02-25T23:19:09.469Z,10.27
2023-02-25T23:21:38.458Z,11.20
2023-02-25T23:24:07.588Z,9.32
2023-02-25T23:26:39.082Z,8.80
2023-02-25T23:29:08.685Z,7.30
2023-02-25T23:31:42.550Z,8.95
2023-02-25T23:34:13.834Z,6.30
2023-02-25T23:36:42.360Z,7.45
2023-02-25T23:39:11.345Z,7.88
2023-02-25T23:41:39.236Z,7.13
2023-02-25T23:44:08.378Z,7.45
2023-02-25T23:46:35.942Z,6.72
2023-02-25T23:49:06.830Z,8.10
2023-02-25T23:51:34.201Z,6.20
2023-02-25T23:54:03.441Z,5.93
2023-02-25T23:56:31.244Z,5.68
2023-02-25T23:58:58.444Z,6.10
